Time;durP1;ratioP1;P1;durP2;ratioP2;P2;SDS_P1;SDS_P2;PMS_P1;PMS_P2;Temp;Humidity;BMP_temperature;BMP_pressure;BME280_temperature;BME280_humidity;BME280_pressure;Samples;Min_cycle;Max_cycle;Signal;HPM_P1;HPM_P2
2022/10/16 00:00:16;;;;;;;;;;;15.00;99.90;;;;;;5074018;28;19995;-80
2022/10/16 00:02:42;;;;;;;;;;;15.10;99.90;;;;;;5073950;28;19919;-80
2022/10/16 00:05:07;;;;;;;;;;;14.90;99.90;;;;;;5073995;28;20032;-80
2022/10/16 00:07:33;;;;;;;;;;;15.00;99.90;;;;;;5074038;28;19912;-79
2022/10/16 00:09:58;;;;;;;;;;;15.00;99.90;;;;;;5073942;28;19952;-80
2022/10/16 00:12:24;;;;;;;;;;;15.00;99.90;;;;;;5073925;28;19908;-78
2022/10/16 00:14:49;;;;;;;;;;;15.00;99.90;;;;;;5073984;28;19987;-78
2022/10/16 00:17:15;;;;;;;;;;;15.00;99.90;;;;;;5072588;28;19912;-77
2022/10/16 00:19:40;;;;;;;;;;;15.10;99.90;;;;;;5073829;28;20300;-79
2022/10/16 00:22:06;;;;;;;;;;;15.00;99.90;;;;;;5073699;28;19958;-77
2022/10/16 00:24:31;;;;;;;;;;;15.00;99.90;;;;;;5073748;28;19915;-78
2022/10/16 00:26:57;;;;;;;;;;;15.10;99.90;;;;;;5073991;28;19908;-77
2022/10/16 00:29:23;;;;;;;;;;;15.10;99.90;;;;;;5073807;28;19935;-77
2022/10/16 00:31:48;;;;;;;;;;;15.10;99.90;;;;;;5073720;28;19908;-80
2022/10/16 00:34:14;;;;;;;;;;;15.10;99.90;;;;;;5074107;28;19908;-78
2022/10/16 00:36:39;;;;;;;;;;;15.10;99.90;;;;;;5072403;28;19915;-78
2022/10/16 00:39:05;;;;;;;;;;;15.20;99.90;;;;;;5072397;28;20292;-79
2022/10/16 00:41:31;;;;;;;;;;;15.20;99.90;;;;;;5073792;28;19913;-78
2022/10/16 00:43:58;;;;;;;;;;;15.20;99.90;;;;;;5074233;28;20392;-77
2022/10/16 00:46:41;;;;;;;;;;;15.10;99.90;;;;;;5073522;28;19908;-78
2022/10/16 00:49:07;;;;;;;;;;;15.10;99.90;;;;;;5073348;28;19921;-78
2022/10/16 00:51:34;;;;;;;;;;;15.10;99.90;;;;;;5073542;28;19919;-80
2022/10/16 00:54:01;;;;;;;;;;;15.20;99.90;;;;;;5073496;28;20258;-80
2022/10/16 00:56:26;;;;;;;;;;;15.10;99.90;;;;;;5073465;28;19991;-77
2022/10/16 00:58:52;;;;;;;;;;;15.10;99.90;;;;;;5073430;28;19952;-80
2022/10/16 01:01:17;;;;;;;;;;;15.10;99.90;;;;;;5073585;28;19916;-80
2022/10/16 01:03:43;;;;;;;;;;;15.20;99.90;;;;;;5073558;28;19939;-79
2022/10/16 01:06:10;;;;;;;;;;;15.10;99.90;;;;;;5073988;28;19909;-78
2022/10/16 01:08:49;;;;;;;;;;;15.00;99.90;;;;;;5077602;28;20357;-79
2022/10/16 01:11:23;;;;;;;;;;;15.10;99.90;;;;;;5076869;28;20340;-78
2022/10/16 01:13:53;;;;;;;;;;;15.00;99.90;;;;;;5077413;28;19909;-78
2022/10/16 01:16:24;;;;;;;;;;;14.90;99.90;;;;;;5077207;28;19908;-78
2022/10/16 01:18:56;;;;;;;;;;;14.90;99.90;;;;;;5077381;28;19915;-79
2022/10/16 01:21:24;;;;;;;;;;;14.90;99.90;;;;;;5077164;28;19908;-80
2022/10/16 01:24:06;;;;;;;;;;;15.00;99.90;;;;;;5077137;28;19952;-80
2022/10/16 01:26:35;;;;;;;;;;;15.10;99.90;;;;;;5077460;28;19944;-78
2022/10/16 01:29:08;;;;;;;;;;;15.10;99.90;;;;;;5076961;28;19958;-79
2022/10/16 01:31:36;;;;;;;;;;;15.10;99.90;;;;;;5077006;28;19908;-79
2022/10/16 01:34:04;;;;;;;;;;;15.00;99.90;;;;;;5076846;28;20014;-79
2022/10/16 01:36:49;;;;;;;;;;;15.00;99.90;;;;;;5077188;28;19908;-78
2022/10/16 01:39:16;;;;;;;;;;;15.00;99.90;;;;;;5075209;28;20296;-79
2022/10/16 01:41:44;;;;;;;;;;;14.90;99.90;;;;;;5076656;28;19955;-77
2022/10/16 01:44:17;;;;;;;;;;;14.90;99.90;;;;;;5077206;28;19909;-79
2022/10/16 01:46:45;;;;;;;;;;;14.80;99.90;;;;;;5076366;28;20392;-77
2022/10/16 01:49:11;;;;;;;;;;;14.70;99.90;;;;;;5076370;28;20457;-79
2022/10/16 01:51:37;;;;;;;;;;;14.70;99.90;;;;;;5076501;28;19916;-80
2022/10/16 01:54:04;;;;;;;;;;;14.60;99.90;;;;;;5075201;28;19912;-79
2022/10/16 01:56:30;;;;;;;;;;;14.60;99.90;;;;;;5076459;28;19909;-77
2022/10/16 01:58:59;;;;;;;;;;;14.70;99.90;;;;;;5076450;28;19908;-80
2022/10/16 02:01:26;;;;;;;;;;;14.60;99.90;;;;;;5076287;28;19915;-76
2022/10/16 02:03:53;;;;;;;;;;;14.60;99.90;;;;;;5076286;28;19909;-79
2022/10/16 02:06:19;;;;;;;;;;;14.70;99.90;;;;;;5075519;28;19931;-80
2022/10/16 02:08:45;;;;;;;;;;;14.80;99.90;;;;;;5076223;28;20376;-80
2022/10/16 02:11:11;;;;;;;;;;;14.70;99.90;;;;;;5076147;28;19908;-79
2022/10/16 02:13:38;;;;;;;;;;;14.70;99.90;;;;;;5076229;28;19908;-77
2022/10/16 02:16:04;;;;;;;;;;;14.70;99.90;;;;;;5076052;28;20022;-80
2022/10/16 02:18:30;;;;;;;;;;;14.70;99.90;;;;;;5075650;28;19912;-79
2022/10/16 02:21:04;;;;;;;;;;;14.70;99.90;;;;;;5076260;28;20018;-79
2022/10/16 02:23:50;;;;;;;;;;;14.60;99.90;;;;;;5075890;28;19941;-79
2022/10/16 02:26:21;;;;;;;;;;;14.60;99.90;;;;;;5075750;28;19944;-78
2022/10/16 02:28:52;;;;;;;;;;;14.60;99.90;;;;;;5076141;28;20449;-78
2022/10/16 02:31:21;;;;;;;;;;;14.50;99.90;;;;;;5075934;28;19908;-77
2022/10/16 02:33:47;;;;;;;;;;;14.50;99.90;;;;;;5075781;28;19919;-79
2022/10/16 02:36:12;;;;;;;;;;;14.40;99.90;;;;;;5075793;28;20296;-78
2022/10/16 02:38:39;;;;;;;;;;;14.50;99.90;;;;;;5075921;28;20017;-80
2022/10/16 02:41:05;;;;;;;;;;;14.40;99.90;;;;;;5075789;28;19908;-77
2022/10/16 02:43:31;;;;;;;;;;;14.40;99.90;;;;;;5076220;28;20380;-78
2022/10/16 02:45:56;;;;;;;;;;;14.30;99.90;;;;;;5075446;28;19916;-80
2022/10/16 02:48:22;;;;;;;;;;;14.30;99.90;;;;;;5075965;28;19912;-78
2022/10/16 02:50:48;;;;;;;;;;;14.30;99.90;;;;;;5075030;28;19927;-78
2022/10/16 02:53:13;;;;;;;;;;;14.30;99.90;;;;;;5075395;28;20003;-79
2022/10/16 02:55:39;;;;;;;;;;;14.30;99.90;;;;;;5075379;28;19908;-78
2022/10/16 02:58:04;;;;;;;;;;;14.30;99.90;;;;;;5075387;28;19978;-79
2022/10/16 03:00:30;;;;;;;;;;;14.20;99.90;;;;;;5075313;28;19954;-78
2022/10/16 03:02:55;;;;;;;;;;;14.20;99.90;;;;;;5075589;28;20015;-78
2022/10/16 03:05:21;;;;;;;;;;;14.30;99.90;;;;;;5074987;28;19913;-77
2022/10/16 03:07:47;;;;;;;;;;;14.40;99.90;;;;;;5075197;28;20266;-80
2022/10/16 03:10:12;;;;;;;;;;;14.30;99.90;;;;;;5075214;28;19952;-77
2022/10/16 03:12:38;;;;;;;;;;;14.20;99.90;;;;;;5075072;28;19909;-78
2022/10/16 03:15:03;;;;;;;;;;;14.30;99.90;;;;;;5074934;28;19908;-79
2022/10/16 03:17:29;;;;;;;;;;;14.30;99.90;;;;;;5074909;28;19908;-79
2022/10/16 03:19:54;;;;;;;;;;;14.40;99.90;;;;;;5075170;28;19940;-79
2022/10/16 03:22:20;;;;;;;;;;;14.50;99.90;;;;;;5074961;28;19919;-79
2022/10/16 03:24:46;;;;;;;;;;;14.50;99.90;;;;;;5073460;28;19915;-80
2022/10/16 03:27:11;;;;;;;;;;;14.50;99.90;;;;;;5074740;28;19915;-79
2022/10/16 03:29:37;;;;;;;;;;;14.40;99.90;;;;;;5074294;28;19915;-79
2022/10/16 03:32:02;;;;;;;;;;;14.30;99.90;;;;;;5074605;28;19927;-79
2022/10/16 03:34:28;;;;;;;;;;;14.20;99.90;;;;;;5074579;28;19943;-78
2022/10/16 03:36:54;;;;;;;;;;;14.20;99.90;;;;;;5074510;28;19916;-80
2022/10/16 03:39:19;;;;;;;;;;;14.20;99.90;;;;;;5074470;28;19908;-79
2022/10/16 03:41:46;;;;;;;;;;;14.20;99.90;;;;;;5073912;28;19912;-78
2022/10/16 03:44:12;;;;;;;;;;;14.20;99.90;;;;;;5074892;28;19909;-78
2022/10/16 03:46:37;;;;;;;;;;;14.10;99.90;;;;;;5073613;28;19908;-78
2022/10/16 03:49:03;;;;;;;;;;;14.20;99.90;;;;;;5074200;28;19923;-79
2022/10/16 03:51:29;;;;;;;;;;;14.10;99.90;;;;;;5074612;28;19951;-79
2022/10/16 03:53:54;;;;;;;;;;;14.10;99.90;;;;;;5074182;28;19947;-79
2022/10/16 03:56:20;;;;;;;;;;;14.10;99.90;;;;;;5074126;28;19993;-79
2022/10/16 03:58:45;;;;;;;;;;;14.20;99.90;;;;;;5074118;28;19915;-77
2022/10/16 04:01:11;;;;;;;;;;;14.30;99.90;;;;;;5074366;28;19983;-78
2022/10/16 04:03:37;;;;;;;;;;;14.30;99.90;;;;;;5074230;28;20012;-79
2022/10/16 04:06:02;;;;;;;;;;;14.40;99.90;;;;;;5072725;28;19908;-79
2022/10/16 04:08:28;;;;;;;;;;;14.40;99.90;;;;;;5073977;28;19908;-77
2022/10/16 04:10:53;;;;;;;;;;;14.50;99.90;;;;;;5072655;28;19909;-78
2022/10/16 04:13:19;;;;;;;;;;;14.60;99.90;;;;;;5072642;28;19908;-77
2022/10/16 04:15:45;;;;;;;;;;;14.60;99.90;;;;;;5073866;28;20390;-79
2022/10/16 04:18:11;;;;;;;;;;;14.70;99.90;;;;;;5073862;28;19913;-78
2022/10/16 04:20:36;;;;;;;;;;;14.70;99.90;;;;;;5072568;28;20325;-79
2022/10/16 04:23:02;;;;;;;;;;;14.70;99.90;;;;;;5074173;28;19912;-79
2022/10/16 04:25:27;;;;;;;;;;;14.80;99.90;;;;;;5073785;28;19932;-79
2022/10/16 04:27:53;;;;;;;;;;;14.90;99.90;;;;;;5073833;28;19991;-78
2022/10/16 04:30:19;;;;;;;;;;;14.90;99.90;;;;;;5072004;28;19999;-79
2022/10/16 04:32:49;;;;;;;;;;;14.90;99.90;;;;;;5073689;28;20009;-79
2022/10/16 04:35:15;;;;;;;;;;;15.10;99.90;;;;;;5073993;28;19958;-77
2022/10/16 04:37:40;;;;;;;;;;;15.00;99.90;;;;;;5073488;28;20360;-79
2022/10/16 04:40:06;;;;;;;;;;;15.00;99.90;;;;;;5073493;28;20418;-79
2022/10/16 04:42:31;;;;;;;;;;;15.00;99.90;;;;;;5072210;28;19912;-80
2022/10/16 04:44:57;;;;;;;;;;;15.10;99.90;;;;;;5074358;28;19909;-79
2022/10/16 04:47:23;;;;;;;;;;;15.20;99.90;;;;;;5072241;28;19942;-78
2022/10/16 04:49:48;;;;;;;;;;;15.10;99.90;;;;;;5073332;28;19999;-80
2022/10/16 04:52:14;;;;;;;;;;;15.00;99.90;;;;;;5073534;28;20003;-79
2022/10/16 04:54:40;;;;;;;;;;;14.90;99.90;;;;;;5073022;28;19916;-78
2022/10/16 04:57:06;;;;;;;;;;;15.10;99.90;;;;;;5073612;28;19909;-79
2022/10/16 04:59:31;;;;;;;;;;;15.10;99.90;;;;;;5073545;28;19961;-77
2022/10/16 05:01:57;;;;;;;;;;;15.10;99.90;;;;;;5073350;28;19913;-78
2022/10/16 05:04:22;;;;;;;;;;;15.10;99.90;;;;;;5073393;28;19913;-80
2022/10/16 05:06:48;;;;;;;;;;;15.10;99.90;;;;;;5072090;28;19909;-79
2022/10/16 05:09:14;;;;;;;;;;;15.10;99.90;;;;;;5073485;28;19909;-80
2022/10/16 05:11:39;;;;;;;;;;;15.20;99.90;;;;;;5073883;28;19948;-77
2022/10/16 05:14:05;;;;;;;;;;;15.20;99.90;;;;;;5073227;28;19909;-78
2022/10/16 05:16:30;;;;;;;;;;;15.10;99.90;;;;;;5072916;28;19932;-78
2022/10/16 05:18:56;;;;;;;;;;;15.20;99.90;;;;;;5073531;28;19916;-78
2022/10/16 05:21:22;;;;;;;;;;;15.10;99.90;;;;;;5073218;28;20311;-78
2022/10/16 05:23:47;;;;;;;;;;;15.20;99.90;;;;;;5073242;28;19958;-80
2022/10/16 05:26:13;;;;;;;;;;;15.20;99.90;;;;;;5073226;28;19961;-80
2022/10/16 05:28:38;;;;;;;;;;;15.10;99.90;;;;;;5073354;28;19959;-77
2022/10/16 05:31:05;;;;;;;;;;;15.10;99.90;;;;;;5073252;28;20388;-78
2022/10/16 05:33:31;;;;;;;;;;;15.10;99.90;;;;;;5073862;28;20402;-79
2022/10/16 05:35:56;;;;;;;;;;;15.20;99.90;;;;;;5073106;28;19909;-77
2022/10/16 05:38:22;;;;;;;;;;;15.30;99.90;;;;;;5072880;28;19983;-80
2022/10/16 05:40:51;;;;;;;;;;;15.40;99.90;;;;;;5071756;28;19915;-79
2022/10/16 05:43:17;;;;;;;;;;;15.30;99.90;;;;;;5072992;28;19962;-77
2022/10/16 05:45:42;;;;;;;;;;;15.20;99.90;;;;;;5073871;28;19913;-79
2022/10/16 05:48:08;;;;;;;;;;;15.30;99.90;;;;;;5072655;28;19919;-80
2022/10/16 05:50:33;;;;;;;;;;;15.30;99.90;;;;;;5072599;28;19958;-79
2022/10/16 05:52:59;;;;;;;;;;;15.20;99.90;;;;;;5074550;28;19916;-78
2022/10/16 05:55:25;;;;;;;;;;;15.20;99.90;;;;;;5076498;28;19908;-80
2022/10/16 05:57:53;;;;;;;;;;;15.20;99.90;;;;;;5076465;28;19908;-77
2022/10/16 06:00:19;;;;;;;;;;;15.10;99.90;;;;;;5076516;28;19909;-80
2022/10/16 06:02:44;;;;;;;;;;;15.20;99.90;;;;;;5075893;28;20384;-77
2022/10/16 06:05:10;;;;;;;;;;;15.10;99.90;;;;;;5076288;28;19955;-78
2022/10/16 06:07:36;;;;;;;;;;;15.10;99.90;;;;;;5075761;28;19954;-77
2022/10/16 06:10:03;;;;;;;;;;;15.10;99.90;;;;;;5075933;28;19958;-78
2022/10/16 06:12:28;;;;;;;;;;;15.10;99.90;;;;;;5075945;28;19908;-77
2022/10/16 06:14:54;;;;;;;;;;;15.20;99.90;;;;;;5076024;28;20407;-79
2022/10/16 06:17:19;;;;;;;;;;;15.20;99.90;;;;;;5075957;28;19916;-79
2022/10/16 06:19:45;;;;;;;;;;;15.30;99.90;;;;;;5075805;28;20344;-77
2022/10/16 06:22:10;;;;;;;;;;;15.30;99.90;;;;;;5075763;28;20034;-79
2022/10/16 06:24:36;;;;;;;;;;;15.30;99.90;;;;;;5074102;28;19908;-77
2022/10/16 06:27:02;;;;;;;;;;;15.20;99.90;;;;;;5075808;28;19909;-78
2022/10/16 06:29:28;;;;;;;;;;;15.30;99.90;;;;;;5074487;28;19947;-78
2022/10/16 06:31:54;;;;;;;;;;;15.20;99.90;;;;;;5075486;28;19912;-80
2022/10/16 06:34:19;;;;;;;;;;;15.20;99.90;;;;;;5075665;28;19908;-79
2022/10/16 06:36:45;;;;;;;;;;;15.20;99.90;;;;;;5075797;28;19908;-77
2022/10/16 06:39:10;;;;;;;;;;;15.20;99.90;;;;;;5075797;28;19908;-80
2022/10/16 06:41:36;;;;;;;;;;;15.40;99.90;;;;;;5075475;28;20310;-77
2022/10/16 06:44:05;;;;;;;;;;;15.50;99.90;;;;;;5075323;28;19915;-77
2022/10/16 06:46:31;;;;;;;;;;;15.60;99.90;;;;;;5075095;28;19923;-78
2022/10/16 06:48:56;;;;;;;;;;;15.60;99.90;;;;;;5075374;28;19920;-78
2022/10/16 06:51:23;;;;;;;;;;;15.60;99.90;;;;;;5075656;28;19908;-78
2022/10/16 06:53:49;;;;;;;;;;;15.40;99.90;;;;;;5075215;28;20261;-80
2022/10/16 06:56:25;;;;;;;;;;;15.30;99.90;;;;;;5075031;28;19944;-80
2022/10/16 06:58:51;;;;;;;;;;;15.30;99.90;;;;;;5075120;28;19947;-80
2022/10/16 07:01:17;;;;;;;;;;;15.30;99.90;;;;;;5073942;28;20353;-78
2022/10/16 07:03:44;;;;;;;;;;;15.40;99.90;;;;;;5073901;28;20029;-79
2022/10/16 07:06:11;;;;;;;;;;;15.50;99.90;;;;;;5075007;28;20357;-78
2022/10/16 07:08:38;;;;;;;;;;;15.50;99.90;;;;;;5073836;28;20388;-77
2022/10/16 07:11:05;;;;;;;;;;;15.50;99.90;;;;;;5075281;28;19939;-77
2022/10/16 07:13:33;;;;;;;;;;;15.60;99.90;;;;;;5075028;28;19909;-78
2022/10/16 07:16:03;;;;;;;;;;;15.70;99.90;;;;;;5075010;28;20435;-80
2022/10/16 07:18:29;;;;;;;;;;;15.60;99.90;;;;;;5074931;28;20003;-78
2022/10/16 07:21:02;;;;;;;;;;;15.50;99.90;;;;;;5075029;28;19966;-79
2022/10/16 07:23:27;;;;;;;;;;;15.60;99.90;;;;;;5075093;28;19967;-77
2022/10/16 07:25:54;;;;;;;;;;;15.70;99.90;;;;;;5075174;28;19913;-78
2022/10/16 07:28:20;;;;;;;;;;;15.70;99.90;;;;;;5074115;28;19930;-78
2022/10/16 07:30:45;;;;;;;;;;;15.80;99.90;;;;;;5074464;28;19909;-78
2022/10/16 07:33:11;;;;;;;;;;;15.80;99.90;;;;;;5074594;28;19908;-79
2022/10/16 07:35:36;;;;;;;;;;;15.90;99.90;;;;;;5074006;28;19908;-79
2022/10/16 07:38:02;;;;;;;;;;;16.10;99.90;;;;;;5073957;28;19912;-79
2022/10/16 07:40:27;;;;;;;;;;;16.20;99.90;;;;;;5072458;28;19915;-79
2022/10/16 07:42:53;;;;;;;;;;;16.40;99.90;;;;;;5073826;28;19916;-79
2022/10/16 07:45:19;;;;;;;;;;;16.40;99.90;;;;;;5074136;28;19909;-78
2022/10/16 07:47:44;;;;;;;;;;;16.70;99.90;;;;;;5074352;28;19923;-78
2022/10/16 07:50:10;;;;;;;;;;;17.00;99.90;;;;;;5074010;28;20373;-78
2022/10/16 07:52:35;;;;;;;;;;;17.40;99.90;;;;;;5073834;28;19912;-80
2022/10/16 07:55:01;;;;;;;;;;;17.90;99.90;;;;;;5073989;28;20045;-79
2022/10/16 07:57:26;;;;;;;;;;;18.30;99.90;;;;;;5072879;28;19931;-80
2022/10/16 07:59:52;;;;;;;;;;;18.20;99.90;;;;;;5074275;28;19997;-79
2022/10/16 08:02:17;;;;;;;;;;;18.20;99.90;;;;;;5074105;28;19912;-80
2022/10/16 08:04:43;;;;;;;;;;;17.90;99.90;;;;;;5074203;28;20376;-78
2022/10/16 08:07:09;;;;;;;;;;;17.70;99.90;;;;;;5074030;28;19909;-78
2022/10/16 08:09:34;;;;;;;;;;;17.70;99.90;;;;;;5074000;28;19992;-80
2022/10/16 08:12:00;;;;;;;;;;;17.60;99.90;;;;;;5073944;28;19908;-78
2022/10/16 08:14:25;;;;;;;;;;;17.50;99.90;;;;;;5072636;28;19909;-80
2022/10/16 08:16:51;;;;;;;;;;;17.50;99.90;;;;;;5073517;28;19908;-80
2022/10/16 08:19:16;;;;;;;;;;;17.30;99.90;;;;;;5074096;28;19912;-78
2022/10/16 08:21:42;;;;;;;;;;;17.10;99.90;;;;;;5073878;28;20364;-80
2022/10/16 08:24:08;;;;;;;;;;;17.30;99.90;;;;;;5073867;28;19915;-78
2022/10/16 08:26:34;;;;;;;;;;;17.30;99.90;;;;;;5073971;28;19912;-77
2022/10/16 08:28:59;;;;;;;;;;;17.20;99.90;;;;;;5073814;28;19908;-79
2022/10/16 08:31:26;;;;;;;;;;;17.20;99.90;;;;;;5074201;28;19955;-80
2022/10/16 08:33:52;;;;;;;;;;;17.40;99.90;;;;;;5072405;28;19908;-78
2022/10/16 08:36:18;;;;;;;;;;;17.50;99.90;;;;;;5073685;28;19916;-78
2022/10/16 08:38:43;;;;;;;;;;;17.60;99.90;;;;;;5073683;28;19919;-77
2022/10/16 08:41:12;;;;;;;;;;;17.60;99.90;;;;;;5073605;28;20281;-79
2022/10/16 08:43:46;;;;;;;;;;;17.70;99.90;;;;;;5073530;28;19913;-80
2022/10/16 08:46:19;;;;;;;;;;;17.70;99.90;;;;;;5074158;28;19909;-80
2022/10/16 08:48:47;;;;;;;;;;;17.60;99.90;;;;;;5071830;28;19949;-79
2022/10/16 08:51:18;;;;;;;;;;;17.50;99.90;;;;;;5073591;28;19912;-79
2022/10/16 08:53:49;;;;;;;;;;;17.40;99.90;;;;;;5073496;28;19913;-78
2022/10/16 08:56:15;;;;;;;;;;;17.30;99.90;;;;;;5073436;28;19909;-80
2022/10/16 08:58:40;;;;;;;;;;;17.40;99.90;;;;;;5073513;28;19974;-78
2022/10/16 09:01:11;;;;;;;;;;;17.50;99.90;;;;;;5073455;28;20293;-78
2022/10/16 09:03:37;;;;;;;;;;;17.40;99.90;;;;;;5073419;28;19912;-80
2022/10/16 09:06:21;;;;;;;;;;;17.30;99.90;;;;;;5073406;28;19954;-78
2022/10/16 09:08:59;;;;;;;;;;;17.10;99.90;;;;;;5073360;28;19916;-77
2022/10/16 09:11:36;;;;;;;;;;;17.20;99.90;;;;;;5073331;28;19995;-80
2022/10/16 09:14:11;;;;;;;;;;;17.10;99.90;;;;;;5073543;28;19908;-80
2022/10/16 09:16:39;;;;;;;;;;;17.30;99.90;;;;;;5073251;28;19995;-79
2022/10/16 09:19:14;;;;;;;;;;;17.60;99.90;;;;;;5073310;28;20014;-79
2022/10/16 09:21:41;;;;;;;;;;;17.70;99.90;;;;;;5073178;28;19959;-78
2022/10/16 09:24:11;;;;;;;;;;;17.70;99.90;;;;;;5073236;28;19962;-77
2022/10/16 09:26:36;;;;;;;;;;;17.70;99.90;;;;;;5073345;28;19909;-78
2022/10/16 09:29:02;;;;;;;;;;;17.60;99.90;;;;;;5076675;28;20273;-79
2022/10/16 09:31:28;;;;;;;;;;;17.80;99.90;;;;;;5075643;28;19909;-77
2022/10/16 09:34:05;;;;;;;;;;;17.80;99.90;;;;;;5077094;28;19920;-80
2022/10/16 09:36:36;;;;;;;;;;;17.80;99.90;;;;;;5077207;28;20350;-80
2022/10/16 09:39:06;;;;;;;;;;;18.00;99.90;;;;;;5077007;28;19916;-80
2022/10/16 09:41:34;;;;;;;;;;;18.30;99.90;;;;;;5076665;28;19909;-79
2022/10/16 09:44:01;;;;;;;;;;;18.60;99.90;;;;;;5076697;28;19909;-79
2022/10/16 09:46:27;;;;;;;;;;;18.60;99.90;;;;;;5077389;28;20369;-79
2022/10/16 09:48:57;;;;;;;;;;;18.80;99.90;;;;;;5075190;28;19928;-78
2022/10/16 09:51:25;;;;;;;;;;;18.60;99.90;;;;;;5076780;28;19904;-77
2022/10/16 09:53:54;;;;;;;;;;;18.70;99.90;;;;;;5076538;28;19939;-77
2022/10/16 09:56:25;;;;;;;;;;;18.60;99.90;;;;;;5074956;28;21215;-78
2022/10/16 09:58:52;;;;;;;;;;;18.60;99.90;;;;;;5076404;28;20280;-80
2022/10/16 10:01:18;;;;;;;;;;;18.70;99.90;;;;;;5076369;28;19908;-77
2022/10/16 10:03:45;;;;;;;;;;;18.70;99.90;;;;;;5076255;28;19917;-79
2022/10/16 10:06:20;;;;;;;;;;;18.90;99.90;;;;;;5076873;28;20357;-81
2022/10/16 10:08:59;;;;;;;;;;;19.00;99.90;;;;;;5076215;28;19909;-80
2022/10/16 10:11:37;;;;;;;;;;;18.90;99.90;;;;;;5074651;28;20384;-78
2022/10/16 10:14:04;;;;;;;;;;;18.80;99.90;;;;;;5076316;28;19912;-77
2022/10/16 10:16:29;;;;;;;;;;;18.50;99.90;;;;;;5076275;28;19943;-79
2022/10/16 10:18:59;;;;;;;;;;;18.30;99.90;;;;;;5076159;28;19951;-80
2022/10/16 10:21:24;;;;;;;;;;;18.20;99.90;;;;;;5076005;28;19908;-80
2022/10/16 10:23:59;;;;;;;;;;;18.30;99.90;;;;;;5076327;28;20372;-78
2022/10/16 10:26:27;;;;;;;;;;;18.20;99.90;;;;;;5076115;28;19940;-77
2022/10/16 10:29:03;;;;;;;;;;;18.00;99.90;;;;;;5075926;28;19915;-77
2022/10/16 10:31:28;;;;;;;;;;;17.90;99.90;;;;;;5075910;28;20293;-80
2022/10/16 10:34:09;;;;;;;;;;;17.70;99.90;;;;;;5076103;28;19908;-80
2022/10/16 10:36:41;;;;;;;;;;;17.60;99.90;;;;;;5075801;28;20369;-78
2022/10/16 10:39:14;;;;;;;;;;;17.40;99.90;;;;;;5075482;28;19915;-80
2022/10/16 10:42:04;;;;;;;;;;;17.00;99.90;;;;;;5075584;28;19908;-77
2022/10/16 10:44:30;;;;;;;;;;;16.70;99.90;;;;;;5075918;28;19914;-78
2022/10/16 10:47:08;;;;;;;;;;;16.40;99.90;;;;;;5076186;28;19908;-78
2022/10/16 10:49:36;;;;;;;;;;;16.20;99.90;;;;;;5075386;28;19931;-80
2022/10/16 10:52:05;;;;;;;;;;;15.90;99.90;;;;;;5075442;28;19947;-77
2022/10/16 10:54:40;;;;;;;;;;;15.70;99.90;;;;;;5075428;28;19965;-80
2022/10/16 10:57:14;;;;;;;;;;;15.60;99.90;;;;;;5075446;28;20313;-78
2022/10/16 10:59:49;;;;;;;;;;;15.50;99.90;;;;;;5075302;28;20365;-79
2022/10/16 11:02:22;;;;;;;;;;;15.40;99.90;;;;;;5075386;28;19916;-75
2022/10/16 11:04:48;;;;;;;;;;;15.30;99.90;;;;;;5075328;28;19908;-79
2022/10/16 11:07:16;;;;;;;;;;;15.20;99.90;;;;;;5075143;28;20373;-77
2022/10/16 11:09:46;;;;;;;;;;;15.00;99.90;;;;;;5075120;28;19916;-77
2022/10/16 11:12:15;;;;;;;;;;;15.10;99.90;;;;;;5073492;28;19912;-77
2022/10/16 11:14:46;;;;;;;;;;;15.00;99.90;;;;;;5075030;28;19908;-79
2022/10/16 11:17:13;;;;;;;;;;;14.90;99.90;;;;;;5075063;28;19923;-77
2022/10/16 11:19:54;;;;;;;;;;;14.80;99.90;;;;;;5075494;28;19915;-79
2022/10/16 11:22:22;;;;;;;;;;;14.70;99.90;;;;;;5074928;28;19919;-81
2022/10/16 11:24:51;;;;;;;;;;;14.70;99.90;;;;;;5073571;28;19957;-80
2022/10/16 11:27:20;;;;;;;;;;;14.70;99.90;;;;;;5074715;28;19958;-81
2022/10/16 11:30:12;;;;;;;;;;;14.80;99.90;;;;;;5075051;28;19909;-82
2022/10/16 11:32:48;;;;;;;;;;;15.00;99.90;;;;;;5071527;28;19912;-80
2022/10/16 11:35:24;;;;;;;;;;;15.00;99.90;;;;;;5074712;28;19951;-81
2022/10/16 11:37:50;;;;;;;;;;;15.20;99.90;;;;;;5074499;28;20341;-80
2022/10/16 11:40:22;;;;;;;;;;;15.30;99.90;;;;;;5074530;28;19909;-80
2022/10/16 11:43:05;;;;;;;;;;;15.50;99.90;;;;;;5074570;28;19987;-83
2022/10/16 11:46:03;;;;;;;;;;;15.60;99.90;;;;;;5074863;28;20002;-81
2022/10/16 11:48:41;;;;;;;;;;;16.00;99.90;;;;;;5040904;28;19939;-82
2022/10/16 11:51:12;;;;;;;;;;;16.00;99.90;;;;;;5073847;28;20292;-79
2022/10/16 11:53:37;;;;;;;;;;;16.00;99.90;;;;;;5072713;28;20325;-82
2022/10/16 11:56:03;;;;;;;;;;;15.90;99.90;;;;;;5074358;28;19970;-80
2022/10/16 11:58:38;;;;;;;;;;;15.70;99.90;;;;;;5074179;28;19908;-80
2022/10/16 12:01:14;;;;;;;;;;;15.60;99.90;;;;;;5074236;28;19962;-81
2022/10/16 12:03:51;;;;;;;;;;;15.60;99.90;;;;;;5074067;28;19921;-79
2022/10/16 12:06:35;;;;;;;;;;;15.60;99.90;;;;;;5074240;28;20007;-81
2022/10/16 12:09:02;;;;;;;;;;;15.70;99.90;;;;;;5074017;28;19909;-83
2022/10/16 12:11:27;;;;;;;;;;;15.80;99.90;;;;;;5074056;28;19909;-83
2022/10/16 12:14:11;;;;;;;;;;;16.00;99.90;;;;;;5073902;28;19908;-84
2022/10/16 12:16:37;;;;;;;;;;;16.20;99.90;;;;;;5074033;28;19916;-80
2022/10/16 12:19:10;;;;;;;;;;;16.50;99.90;;;;;;5074084;28;19975;-82
2022/10/16 12:21:36;;;;;;;;;;;16.60;99.90;;;;;;5073809;28;19909;-83
2022/10/16 12:24:04;;;;;;;;;;;16.80;99.90;;;;;;5074287;28;20345;-84
2022/10/16 12:26:31;;;;;;;;;;;17.00;99.90;;;;;;5073748;28;19908;-84
2022/10/16 12:29:09;;;;;;;;;;;17.10;99.90;;;;;;5073748;28;19908;-82
2022/10/16 12:31:41;;;;;;;;;;;16.90;99.90;;;;;;5073735;28;20372;-84
2022/10/16 12:34:20;;;;;;;;;;;16.70;99.90;;;;;;5074057;28;19912;-82
2022/10/16 12:36:45;;;;;;;;;;;16.60;99.90;;;;;;5074022;28;19959;-83
2022/10/16 12:39:20;;;;;;;;;;;16.50;99.90;;;;;;5073737;28;19951;-81
2022/10/16 12:41:45;;;;;;;;;;;16.40;99.90;;;;;;5073614;28;19952;-82
2022/10/16 12:44:24;;;;;;;;;;;16.40;99.90;;;;;;5074061;28;19966;-80
2022/10/16 12:46:50;;;;;;;;;;;16.40;99.90;;;;;;5074018;28;19944;-81
2022/10/16 12:49:21;;;;;;;;;;;16.50;99.90;;;;;;5073462;28;20003;-82
2022/10/16 12:51:47;;;;;;;;;;;16.50;99.90;;;;;;5072002;28;20009;-79
2022/10/16 12:54:18;;;;;;;;;;;16.40;99.90;;;;;;5073696;28;19964;-83
2022/10/16 12:57:02;;;;;;;;;;;16.40;99.90;;;;;;5073769;28;20396;-80
2022/10/16 12:59:39;;;;;;;;;;;16.50;99.90;;;;;;5073460;28;19909;-83
2022/10/16 13:02:23;;;;;;;;;;;16.60;99.90;;;;;;5075482;28;19942;-82
2022/10/16 13:05:00;;;;;;;;;;;16.60;99.90;;;;;;5077872;28;19944;-83
2022/10/16 13:07:26;;;;;;;;;;;16.50;99.90;;;;;;5077388;28;19916;-81
2022/10/16 13:09:51;;;;;;;;;;;16.40;99.90;;;;;;5077577;28;19909;-80
2022/10/16 13:12:35;;;;;;;;;;;16.50;99.90;;;;;;5077513;28;19934;-82
2022/10/16 13:15:15;;;;;;;;;;;16.70;99.90;;;;;;5077190;28;19908;-82
2022/10/16 13:17:49;;;;;;;;;;;16.80;99.90;;;;;;5077246;28;19908;-82
2022/10/16 13:20:33;;;;;;;;;;;16.80;99.90;;;;;;5077322;28;19909;-81
2022/10/16 13:23:12;;;;;;;;;;;16.80;99.90;;;;;;5077075;28;20292;-83
2022/10/16 13:25:38;;;;;;;;;;;16.80;99.90;;;;;;5077155;28;19909;-81
2022/10/16 13:28:05;;;;;;;;;;;16.70;99.90;;;;;;5077019;28;20292;-79
2022/10/16 13:30:51;;;;;;;;;;;16.70;99.90;;;;;;5077208;28;19908;-82
2022/10/16 13:33:37;;;;;;;;;;;16.60;99.90;;;;;;5076436;28;19916;-81
2022/10/16 13:36:03;;;;;;;;;;;16.50;99.90;;;;;;5065859;28;19909;-81
2022/10/16 13:38:32;;;;;;;;;;;16.60;99.90;;;;;;5076956;28;19908;-82
2022/10/16 13:41:05;;;;;;;;;;;16.60;99.90;;;;;;5076786;28;20288;-82
2022/10/16 13:43:35;;;;;;;;;;;16.60;99.90;;;;;;5076798;28;19944;-83
2022/10/16 13:46:12;;;;;;;;;;;16.50;99.90;;;;;;5077238;28;20038;-83
2022/10/16 13:48:37;;;;;;;;;;;16.40;99.90;;;;;;5076752;28;19999;-84
2022/10/16 13:51:05;;;;;;;;;;;16.50;99.90;;;;;;5076919;28;19960;-83
2022/10/16 13:53:31;;;;;;;;;;;16.50;99.90;;;;;;5076508;28;19915;-83
2022/10/16 13:55:57;;;;;;;;;;;16.60;99.90;;;;;;5076466;28;19915;-83
2022/10/16 13:58:23;;;;;;;;;;;16.70;99.90;;;;;;5075230;28;19909;-81
2022/10/16 14:01:23;;;;;;;;;;;16.90;99.90;;;;;;5076423;28;20416;-82
2022/10/16 14:03:50;;;;;;;;;;;17.10;99.90;;;;;;5014523;28;19913;-79
2022/10/16 14:06:17;;;;;;;;;;;17.60;99.90;;;;;;5063590;28;19939;-81
2022/10/16 14:08:44;;;;;;;;;;;17.80;99.90;;;;;;5076311;28;19909;-83
2022/10/16 14:11:10;;;;;;;;;;;17.80;99.90;;;;;;5076247;28;19915;-83
2022/10/16 14:13:46;;;;;;;;;;;17.80;99.90;;;;;;5075662;28;19908;-84
2022/10/16 14:16:17;;;;;;;;;;;17.80;99.90;;;;;;5076118;28;19942;-82
2022/10/16 14:18:45;;;;;;;;;;;17.70;99.90;;;;;;5076437;28;19962;-81
2022/10/16 14:21:15;;;;;;;;;;;17.70;99.90;;;;;;5076479;28;19909;-81
2022/10/16 14:23:41;;;;;;;;;;;17.60;99.90;;;;;;5076033;28;19920;-79